createdAt,value
2022-07-29T00:02:26.351Z,70.95
2022-07-29T00:04:53.612Z,72.12
2022-07-29T00:07:20.789Z,73.41
2022-07-29T00:09:51.562Z,74.46
2022-07-29T00:12:26.258Z,75.08
2022-07-29T00:14:54.493Z,75.05
2022-07-29T00:17:21.338Z,75.17
2022-07-29T00:19:48.247Z,75.17
2022-07-29T00:22:15.081Z,75.23
2022-07-29T00:24:41.965Z,75.28
2022-07-29T00:27:08.817Z,75.08
2022-07-29T00:29:35.779Z,74.95
2022-07-29T00:32:03.614Z,75.01
2022-07-29T00:34:49.399Z,74.88
2022-07-29T00:37:16.390Z,75.28
2022-07-29T00:39:43.302Z,75.91
2022-07-29T00:42:10.939Z,76.96
2022-07-29T00:44:41.850Z,77.47
2022-07-29T00:47:09.561Z,78.28
2022-07-29T00:49:36.606Z,78.79
2022-07-29T00:52:04.678Z,79.70
2022-07-29T00:54:32.149Z,80.33
2022-07-29T00:56:59.253Z,80.81
2022-07-29T00:59:27.093Z,81.12
2022-07-29T01:02:02.694Z,81.11
2022-07-29T01:04:30.938Z,80.81
2022-07-29T01:06:58.021Z,80.30
2022-07-29T01:09:40.875Z,80.07
2022-07-29T01:12:18.452Z,79.72
2022-07-29T01:14:45.807Z,79.60
2022-07-29T01:17:19.672Z,79.30
2022-07-29T01:20:04.918Z,79.17
2022-07-29T01:22:50.880Z,78.78
2022-07-29T01:25:36.558Z,78.63
2022-07-29T01:28:23.004Z,78.83
2022-07-29T01:30:53.061Z,78.94
2022-07-29T01:33:40.284Z,78.64
2022-07-29T01:36:12.013Z,79.07
2022-07-29T01:38:40.667Z,78.96
2022-07-29T01:41:09.528Z,79.17
2022-07-29T01:43:43.816Z,79.08
2022-07-29T01:46:13.144Z,78.90
2022-07-29T01:48:47.242Z,79.03
2022-07-29T01:51:34.971Z,79.15
2022-07-29T01:54:22.299Z,78.89
2022-07-29T01:56:51.177Z,78.82
2022-07-29T01:59:18.864Z,78.67
2022-07-29T02:01:46.863Z,78.56
2022-07-29T02:04:26.694Z,78.38
2022-07-29T02:06:59.897Z,78.32
2022-07-29T02:09:27.020Z,78.44
2022-07-29T02:11:55.141Z,78.14
2022-07-29T02:14:23.680Z,78.20
2022-07-29T02:16:53.035Z,78.21
2022-07-29T02:19:22.253Z,77.98
2022-07-29T02:21:49.429Z,77.89
2022-07-29T02:24:17.400Z,77.59
2022-07-29T02:26:45.388Z,77.72
2022-07-29T02:29:13.641Z,77.88
2022-07-29T02:31:41.514Z,77.91
2022-07-29T02:34:09.438Z,77.73
2022-07-29T02:36:36.570Z,77.89
2022-07-29T02:39:04.709Z,77.98
2022-07-29T02:41:41.932Z,77.86
2022-07-29T02:44:13.534Z,77.73
2022-07-29T02:47:13.065Z,77.66
2022-07-29T02:49:43.892Z,77.68
2022-07-29T02:52:33.735Z,78.01
2022-07-29T02:55:19.620Z,77.67
2022-07-29T02:57:54.903Z,77.58
2022-07-29T03:00:24.781Z,77.41
2022-07-29T03:02:53.620Z,77.79
2022-07-29T03:05:21.374Z,78.62
2022-07-29T03:07:52.513Z,78.88
2022-07-29T03:10:19.434Z,78.79
2022-07-29T03:12:46.689Z,79.07
2022-07-29T03:15:14.003Z,79.12
2022-07-29T03:17:41.242Z,79.18
2022-07-29T03:20:08.921Z,80.19
2022-07-29T03:22:41.564Z,80.41
2022-07-29T03:25:09.235Z,80.56
2022-07-29T03:27:36.140Z,80.40
2022-07-29T03:30:03.029Z,79.87
2022-07-29T03:32:30.453Z,80.19
2022-07-29T03:34:57.825Z,80.18
2022-07-29T03:37:24.615Z,80.16
2022-07-29T03:39:52.469Z,80.05
2022-07-29T03:42:20.890Z,80.00
2022-07-29T03:44:49.533Z,79.73
2022-07-29T03:47:17.826Z,80.04
2022-07-29T03:49:47.737Z,79.93
2022-07-29T03:52:14.801Z,80.16
2022-07-29T03:54:41.750Z,79.61
2022-07-29T03:57:08.795Z,79.49
2022-07-29T03:59:36.252Z,79.47
2022-07-29T04:02:06.490Z,79.30
2022-07-29T04:04:34.513Z,79.21
2022-07-29T04:07:01.563Z,79.04
2022-07-29T04:09:28.514Z,79.00
2022-07-29T04:12:02.307Z,79.04
2022-07-29T04:14:30.710Z,79.20
2022-07-29T04:16:57.464Z,79.00
2022-07-29T04:19:24.280Z,78.56
2022-07-29T04:21:52.424Z,78.40
2022-07-29T04:24:19.528Z,78.48
2022-07-29T04:26:47.048Z,78.47
2022-07-29T04:29:15.343Z,78.50
2022-07-29T04:31:42.840Z,78.64
2022-07-29T04:34:10.210Z,78.79
2022-07-29T04:36:37.094Z,78.75
2022-07-29T04:39:04.443Z,78.61
2022-07-29T04:41:33.294Z,78.84
2022-07-29T04:44:07.008Z,78.77
2022-07-29T04:46:34.557Z,78.82
2022-07-29T04:49:01.661Z,78.82
2022-07-29T04:51:28.665Z,78.63
2022-07-29T04:53:55.519Z,78.14
2022-07-29T04:56:22.409Z,78.36
2022-07-29T04:58:49.565Z,77.71
2022-07-29T05:01:16.525Z,77.77
2022-07-29T05:03:43.597Z,78.36
2022-07-29T05:06:10.603Z,78.52
2022-07-29T05:08:37.835Z,78.60
2022-07-29T05:11:11.547Z,78.27
2022-07-29T05:13:45.193Z,78.53
2022-07-29T05:16:14.451Z,78.24
2022-07-29T05:18:41.684Z,78.08
2022-07-29T05:21:08.534Z,77.89
2022-07-29T05:23:35.574Z,77.80
2022-07-29T05:26:02.715Z,77.41
2022-07-29T05:28:29.803Z,77.24
2022-07-29T05:30:57.367Z,76.13
2022-07-29T05:33:35.091Z,75.83
2022-07-29T05:36:03.633Z,75.45
2022-07-29T05:38:30.491Z,74.81
2022-07-29T05:40:57.945Z,75.12
2022-07-29T05:43:24.784Z,74.65
2022-07-29T05:45:51.659Z,74.68
2022-07-29T05:48:18.638Z,74.94
2022-07-29T05:50:45.425Z,74.95
2022-07-29T05:53:21.055Z,73.67
2022-07-29T05:55:48.582Z,74.35
2022-07-29T05:58:15.800Z,74.74
2022-07-29T06:00:43.048Z,74.43
2022-07-29T06:03:10.520Z,73.66
2022-07-29T06:05:39.097Z,73.55
2022-07-29T06:08:09.261Z,72.97
2022-07-29T06:10:36.428Z,71.83
2022-07-29T06:13:03.339Z,71.98
2022-07-29T06:15:30.227Z,71.54
2022-07-29T06:17:59.401Z,71.98
2022-07-29T06:20:32.691Z,71.66
2022-07-29T06:23:00.502Z,71.28
2022-07-29T06:25:27.712Z,71.21
2022-07-29T06:27:54.598Z,70.36
2022-07-29T06:30:21.476Z,69.23
2022-07-29T06:32:48.396Z,69.31
2022-07-29T06:38:03.909Z,68.73
2022-07-29T06:41:00.487Z,68.45
2022-07-29T06:43:28.275Z,67.75
2022-07-29T06:45:55.445Z,68.04
2022-07-29T06:48:22.320Z,67.13
2022-07-29T06:50:49.095Z,67.36
2022-07-29T06:53:16.453Z,67.12
2022-07-29T06:55:43.520Z,68.06
2022-07-29T06:58:10.389Z,67.96
2022-07-29T07:00:37.618Z,67.29
2022-07-29T07:03:04.672Z,67.35
2022-07-29T07:05:31.482Z,66.88
2022-07-29T07:07:58.315Z,66.40
2022-07-29T07:10:25.467Z,66.96
2022-07-29T07:12:52.329Z,65.85
2022-07-29T07:15:23.049Z,65.89
2022-07-29T07:18:07.181Z,64.90
2022-07-29T07:20:34.626Z,60.79
2022-07-29T07:23:01.543Z,60.59
2022-07-29T07:25:28.420Z,60.85
2022-07-29T07:27:55.553Z,59.99
2022-07-29T07:30:22.469Z,58.10
2022-07-29T07:32:49.262Z,57.50
2022-07-29T07:35:16.128Z,56.68
2022-07-29T07:37:42.933Z,55.30
2022-07-29T07:40:10.389Z,53.91
2022-07-29T07:42:37.158Z,54.10
2022-07-29T07:45:16.141Z,53.93
2022-07-29T07:47:43.531Z,53.11
2022-07-29T07:50:15.120Z,53.51
2022-07-29T07:52:49.911Z,52.81
2022-07-29T07:55:17.511Z,51.90
2022-07-29T07:57:44.533Z,52.08
2022-07-29T08:00:11.841Z,51.24
2022-07-29T08:02:43.970Z,51.11
2022-07-29T08:05:12.587Z,50.71
2022-07-29T08:07:40.069Z,49.45
2022-07-29T08:10:07.214Z,50.74
2022-07-29T08:12:33.979Z,49.73
2022-07-29T08:15:00.996Z,49.70
2022-07-29T08:17:28.006Z,48.82
2022-07-29T08:19:55.139Z,48.72
2022-07-29T08:22:22.266Z,48.54
2022-07-29T08:24:54.820Z,49.07
2022-07-29T08:27:42.372Z,47.56
2022-07-29T08:30:11.431Z,47.58
2022-07-29T08:32:55.226Z,46.94
2022-07-29T08:35:23.402Z,46.60
2022-07-29T08:37:50.632Z,46.01
2022-07-29T08:40:17.940Z,46.19
2022-07-29T08:42:44.774Z,46.09
2022-07-29T08:45:12.053Z,45.39
2022-07-29T08:47:40.960Z,45.25
2022-07-29T08:50:11.154Z,45.31
2022-07-29T08:52:39.857Z,44.41
2022-07-29T08:55:07.476Z,43.76
2022-07-29T08:57:34.696Z,44.43
2022-07-29T09:00:11.683Z,43.99
2022-07-29T09:02:46.667Z,43.43
2022-07-29T09:05:13.915Z,42.49
2022-07-29T09:07:41.226Z,41.29
2022-07-29T09:10:08.557Z,41.01
2022-07-29T09:12:37.960Z,41.10
2022-07-29T09:15:05.347Z,40.23
2022-07-29T09:17:45.962Z,40.77
2022-07-29T09:20:14.217Z,39.88
2022-07-29T09:22:42.168Z,39.55
2022-07-29T09:25:09.377Z,38.91
2022-07-29T09:27:36.879Z,38.57
2022-07-29T09:30:08.054Z,37.83
2022-07-29T09:32:54.810Z,38.14
2022-07-29T09:35:22.714Z,36.77
2022-07-29T09:37:49.900Z,36.14
2022-07-29T09:40:18.325Z,36.00
2022-07-29T09:42:45.414Z,36.76
2022-07-29T09:45:12.544Z,35.99
2022-07-29T09:47:50.348Z,34.69
2022-07-29T09:50:17.298Z,35.11
2022-07-29T09:52:49.447Z,35.08
2022-07-29T09:55:18.250Z,34.76
2022-07-29T09:57:47.428Z,34.11
2022-07-29T10:00:16.602Z,33.78
2022-07-29T10:02:47.232Z,34.17
2022-07-29T10:05:24.251Z,33.28
2022-07-29T10:07:57.180Z,32.54
2022-07-29T10:10:31.881Z,32.37
2022-07-29T10:13:06.205Z,33.29
2022-07-29T10:15:39.023Z,32.56
2022-07-29T10:18:06.080Z,32.32
2022-07-29T10:20:32.969Z,31.50
2022-07-29T10:22:59.834Z,30.85
2022-07-29T10:25:27.306Z,31.37
2022-07-29T10:27:54.944Z,30.97
2022-07-29T10:30:22.812Z,30.53
2022-07-29T10:32:57.071Z,29.78
2022-07-29T10:35:42.535Z,30.05
2022-07-29T10:38:17.374Z,29.41
2022-07-29T10:41:26.370Z,27.93
2022-07-29T10:43:54.756Z,29.66
2022-07-29T10:46:22.026Z,29.25
2022-07-29T10:49:11.446Z,28.73
2022-07-29T10:52:05.950Z,28.18
2022-07-29T10:54:42.585Z,28.34
2022-07-29T10:57:18.416Z,27.61
2022-07-29T10:59:53.069Z,27.31
2022-07-29T11:02:57.669Z,27.40
2022-07-29T11:05:31.914Z,26.66
2022-07-29T11:08:25.977Z,26.82
2022-07-29T11:11:15.739Z,25.69
2022-07-29T11:13:48.856Z,26.01
2022-07-29T11:16:20.123Z,24.74
2022-07-29T11:19:09.373Z,25.37
2022-07-29T11:21:54.056Z,24.90
2022-07-29T11:24:35.869Z,24.39
2022-07-29T11:27:13.544Z,24.51
2022-07-29T11:30:03.298Z,24.69
2022-07-29T11:32:37.585Z,24.46
2022-07-29T11:38:19.721Z,23.58
2022-07-29T11:41:08.085Z,23.09
2022-07-29T11:43:52.439Z,23.52
2022-07-29T11:46:38.753Z,22.98
2022-07-29T11:49:09.825Z,21.88
2022-07-29T11:51:48.279Z,22.87
2022-07-29T11:54:28.137Z,21.96
2022-07-29T11:56:55.110Z,21.64
2022-07-29T11:59:22.435Z,22.13
2022-07-29T12:02:33.102Z,22.43
2022-07-29T12:04:57.140Z,21.29
2022-07-29T12:07:03.661Z,23.67
2022-07-29T12:07:35.123Z,21.94
2022-07-29T12:10:04.342Z,22.00
2022-07-29T12:12:33.207Z,20.95
2022-07-29T12:15:11.663Z,20.45
2022-07-29T12:17:40.456Z,21.11
2022-07-29T12:20:07.569Z,21.23
2022-07-29T12:22:39.359Z,21.14
2022-07-29T12:25:31.924Z,20.01
2022-07-29T12:28:00.103Z,21.36
2022-07-29T12:30:36.550Z,21.36
2022-07-29T12:33:11.190Z,22.11
2022-07-29T12:35:38.098Z,22.62
2022-07-29T12:38:05.421Z,22.52
2022-07-29T12:40:32.445Z,22.29
2022-07-29T12:43:28.422Z,21.59
2022-07-29T12:45:56.488Z,20.82
2022-07-29T12:48:36.389Z,21.91
2022-07-29T12:51:04.421Z,21.36
2022-07-29T12:53:31.389Z,20.82
2022-07-29T12:56:00.732Z,20.87
2022-07-29T12:58:49.397Z,20.81
2022-07-29T13:01:20.583Z,20.12
2022-07-29T13:03:57.744Z,20.21
2022-07-29T13:06:51.017Z,19.81
2022-07-29T13:09:19.296Z,20.28
2022-07-29T13:11:50.568Z,20.30
2022-07-29T13:14:52.885Z,20.77
2022-07-29T13:17:21.838Z,20.11
2022-07-29T13:19:52.300Z,20.41
2022-07-29T13:22:20.473Z,20.18
2022-07-29T13:24:57.115Z,20.46
2022-07-29T13:27:25.149Z,20.59
2022-07-29T13:29:53.454Z,20.12
2022-07-29T13:32:28.649Z,20.63
2022-07-29T13:35:00.100Z,19.44
2022-07-29T13:37:27.625Z,19.67
2022-07-29T13:39:55.319Z,19.49
2022-07-29T13:42:22.203Z,20.31
2022-07-29T13:44:51.831Z,18.58
2022-07-29T13:47:19.048Z,19.19
2022-07-29T13:49:45.880Z,19.25
2022-07-29T13:52:12.630Z,19.20
2022-07-29T13:54:42.270Z,19.33
2022-07-29T13:57:09.777Z,19.71
2022-07-29T13:59:36.584Z,19.40
2022-07-29T14:02:03.905Z,19.15
2022-07-29T14:04:30.756Z,19.38
2022-07-29T14:06:57.718Z,19.27
2022-07-29T14:09:24.652Z,19.50
2022-07-29T14:11:52.412Z,19.37
2022-07-29T14:14:19.739Z,20.00
2022-07-29T14:16:49.204Z,20.56
2022-07-29T14:19:18.892Z,21.53
2022-07-29T14:21:46.666Z,21.43
2022-07-29T14:24:17.688Z,21.66
2022-07-29T14:26:46.249Z,21.62
2022-07-29T14:29:13.547Z,21.64
2022-07-29T14:31:40.345Z,21.45
2022-07-29T14:34:07.192Z,21.47
2022-07-29T14:36:34.057Z,21.39
2022-07-29T14:39:00.840Z,21.56
2022-07-29T14:41:29.424Z,20.97
2022-07-29T14:43:56.212Z,19.95
2022-07-29T14:46:23.152Z,19.16
2022-07-29T14:48:49.974Z,19.34
2022-07-29T14:51:16.834Z,19.31
2022-07-29T14:53:43.713Z,18.39
2022-07-29T14:56:35.582Z,18.64
2022-07-29T14:58:58.611Z,18.51
2022-07-29T15:01:25.839Z,18.92
2022-07-29T15:03:55.778Z,18.76
2022-07-29T15:06:26.416Z,18.92
2022-07-29T15:08:53.275Z,18.13
2022-07-29T15:11:20.245Z,17.65
2022-07-29T15:13:47.132Z,17.66
2022-07-29T15:16:14.058Z,17.35
2022-07-29T15:18:41.113Z,17.28
2022-07-29T15:21:08.572Z,17.59
2022-07-29T15:23:38.186Z,17.21
2022-07-29T15:26:05.285Z,17.46
2022-07-29T15:28:32.099Z,18.13
2022-07-29T15:30:59.511Z,17.75
2022-07-29T15:33:26.536Z,18.26
2022-07-29T15:35:53.345Z,18.60
2022-07-29T15:38:20.190Z,19.03
2022-07-29T15:40:55.555Z,19.47
2022-07-29T15:43:22.514Z,20.48
2022-07-29T15:46:07.754Z,20.96
2022-07-29T15:48:34.683Z,20.59
2022-07-29T15:51:01.468Z,21.31
2022-07-29T15:53:28.444Z,21.44
2022-07-29T15:55:55.231Z,21.95
2022-07-29T15:58:22.868Z,22.22
2022-07-29T16:00:49.803Z,22.65
2022-07-29T16:03:16.646Z,23.16
2022-07-29T16:05:43.631Z,23.75
2022-07-29T16:08:10.440Z,23.81
2022-07-29T16:10:37.303Z,23.74
2022-07-29T16:13:04.155Z,24.56
2022-07-29T16:15:31.045Z,24.89
2022-07-29T16:17:57.922Z,25.09
2022-07-29T16:20:24.706Z,25.00
2022-07-29T16:22:51.570Z,25.63
2022-07-29T16:25:18.470Z,25.72
2022-07-29T16:27:45.335Z,25.52
2022-07-29T16:30:12.331Z,25.62
2022-07-29T16:32:40.003Z,25.88
2022-07-29T16:35:07.402Z,25.48
2022-07-29T16:37:36.649Z,25.54
2022-07-29T16:40:04.726Z,25.38
2022-07-29T16:42:46.059Z,25.46
2022-07-29T16:45:13.660Z,24.22
2022-07-29T16:47:40.675Z,24.11
2022-07-29T16:50:08.071Z,24.39
2022-07-29T16:52:35.014Z,24.52
2022-07-29T16:55:01.883Z,25.00
2022-07-29T16:57:28.658Z,24.67
2022-07-29T16:59:55.497Z,25.04
2022-07-29T17:02:22.484Z,25.42
2022-07-29T17:04:49.289Z,24.51
2022-07-29T17:07:16.567Z,22.90
2022-07-29T17:09:43.621Z,22.87
2022-07-29T17:12:10.444Z,22.82
2022-07-29T17:14:37.407Z,22.76
2022-07-29T17:17:04.936Z,22.77
2022-07-29T17:19:40.676Z,22.03
2022-07-29T17:22:14.027Z,21.88
2022-07-29T17:24:42.703Z,21.74
2022-07-29T17:27:10.250Z,21.89
2022-07-29T17:29:37.221Z,21.44
2022-07-29T17:32:04.509Z,22.17
2022-07-29T17:34:35.449Z,22.20
2022-07-29T17:37:02.486Z,22.74
2022-07-29T17:39:29.338Z,23.20
2022-07-29T17:41:56.151Z,23.22
2022-07-29T17:44:23.099Z,24.07
2022-07-29T17:46:49.975Z,25.06
2022-07-29T17:49:16.936Z,25.40
2022-07-29T17:51:43.755Z,25.94
2022-07-29T17:54:10.593Z,26.16
2022-07-29T17:56:37.501Z,26.26
2022-07-29T17:59:06.828Z,26.62
2022-07-29T18:01:33.991Z,26.96
2022-07-29T18:04:02.458Z,26.87
2022-07-29T18:06:29.720Z,27.03
2022-07-29T18:08:56.578Z,27.12
2022-07-29T18:11:23.620Z,27.13
2022-07-29T18:13:50.468Z,27.85
2022-07-29T18:16:17.649Z,27.36
2022-07-29T18:18:45.412Z,28.08
2022-07-29T18:21:12.317Z,27.47
2022-07-29T18:23:39.134Z,28.20
2022-07-29T18:26:05.975Z,27.79
2022-07-29T18:28:33.004Z,28.35
2022-07-29T18:31:00.326Z,28.53
2022-07-29T18:33:27.250Z,28.55
2022-07-29T18:36:10.734Z,28.24
2022-07-29T18:38:38.211Z,28.09
2022-07-29T18:41:05.131Z,28.24
2022-07-29T18:43:31.977Z,28.17
2022-07-29T18:45:58.783Z,28.34
2022-07-29T18:48:25.699Z,28.48
2022-07-29T18:50:52.495Z,28.47
2022-07-29T18:53:19.324Z,28.75
2022-07-29T18:55:46.170Z,29.16
2022-07-29T18:58:13.001Z,29.13
2022-07-29T19:00:39.835Z,29.24
2022-07-29T19:03:08.421Z,29.44
2022-07-29T19:05:35.682Z,29.18
2022-07-29T19:08:02.519Z,29.79
2022-07-29T19:10:29.538Z,29.65
2022-07-29T19:12:56.998Z,29.64
2022-07-29T19:15:23.965Z,29.72
2022-07-29T19:17:50.855Z,29.83
2022-07-29T19:20:17.683Z,30.27
2022-07-29T19:22:44.814Z,30.27
2022-07-29T19:25:11.696Z,30.11
2022-07-29T19:27:38.578Z,30.46
2022-07-29T19:30:07.129Z,30.46
2022-07-29T19:32:34.060Z,31.34
2022-07-29T19:35:19.551Z,31.14
2022-07-29T19:37:46.428Z,31.43
2022-07-29T19:40:13.351Z,31.61
2022-07-29T19:42:40.196Z,31.84
2022-07-29T19:45:07.243Z,31.84
2022-07-29T19:47:34.062Z,32.01
2022-07-29T19:50:01.123Z,32.31
2022-07-29T19:52:28.037Z,32.49
2022-07-29T19:54:54.832Z,32.42
2022-07-29T19:57:21.630Z,32.74
2022-07-29T19:59:48.508Z,32.93
2022-07-29T20:02:16.601Z,32.98
2022-07-29T20:04:43.599Z,33.17
2022-07-29T20:07:10.462Z,33.20
2022-07-29T20:09:37.288Z,33.20
2022-07-29T20:12:04.960Z,33.24
2022-07-29T20:14:31.740Z,33.26
2022-07-29T20:16:58.623Z,33.74
2022-07-29T20:19:26.008Z,36.25
2022-07-29T20:21:53.268Z,36.75
2022-07-29T20:24:20.673Z,36.79
2022-07-29T20:26:48.348Z,36.65
2022-07-29T20:29:15.388Z,36.80
2022-07-29T20:31:43.444Z,37.04
2022-07-29T20:34:10.277Z,38.21
2022-07-29T20:36:37.109Z,38.84
2022-07-29T20:39:03.979Z,38.66
2022-07-29T20:41:30.830Z,38.55
2022-07-29T20:43:57.631Z,38.16
2022-07-29T20:46:24.516Z,38.19
2022-07-29T20:48:51.385Z,38.53
2022-07-29T20:51:18.481Z,39.31
2022-07-29T20:53:45.850Z,39.78
2022-07-29T20:56:12.671Z,40.54
2022-07-29T20:58:40.497Z,40.95
2022-07-29T21:01:07.888Z,41.31
2022-07-29T21:03:34.750Z,41.42
2022-07-29T21:06:01.802Z,41.86
2022-07-29T21:08:28.671Z,42.47
2022-07-29T21:10:55.763Z,42.87
2022-07-29T21:13:23.215Z,42.51
2022-07-29T21:15:51.739Z,42.88
2022-07-29T21:18:28.227Z,44.92
2022-07-29T21:20:55.307Z,46.11
2022-07-29T21:23:22.378Z,46.45
2022-07-29T21:25:49.194Z,46.05
2022-07-29T21:28:29.433Z,45.72
2022-07-29T21:31:01.408Z,45.19
2022-07-29T21:33:28.893Z,44.85
2022-07-29T21:36:46.136Z,45.24
2022-07-29T21:38:43.082Z,44.68
2022-07-29T21:41:12.212Z,44.43
2022-07-29T21:43:41.840Z,44.04
2022-07-29T21:46:09.248Z,43.85
2022-07-29T21:48:37.083Z,43.85
2022-07-29T21:51:06.091Z,43.54
2022-07-29T21:53:32.946Z,44.39
2022-07-29T21:55:59.713Z,44.29
2022-07-29T21:58:26.846Z,44.21
2022-07-29T22:00:54.091Z,44.25
2022-07-29T22:03:21.064Z,43.57
2022-07-29T22:05:47.854Z,43.37
2022-07-29T22:08:14.744Z,43.77
2022-07-29T22:10:41.540Z,44.61
2022-07-29T22:13:08.360Z,45.12
2022-07-29T22:15:35.176Z,45.88
2022-07-29T22:18:02.102Z,46.22
2022-07-29T22:20:28.867Z,46.28
2022-07-29T22:22:55.741Z,46.07
2022-07-29T22:25:22.608Z,46.07
2022-07-29T22:27:49.491Z,45.97
2022-07-29T22:30:16.737Z,46.08
2022-07-29T22:32:43.572Z,45.97
2022-07-29T22:35:10.595Z,45.91
2022-07-29T22:37:37.637Z,45.90
2022-07-29T22:40:05.168Z,45.72
2022-07-29T22:42:31.990Z,45.54
2022-07-29T22:44:58.852Z,45.33
2022-07-29T22:47:46.578Z,45.97
2022-07-29T22:50:12.566Z,46.11
2022-07-29T22:52:39.943Z,46.18
2022-07-29T22:55:07.579Z,45.91
2022-07-29T22:57:34.383Z,45.88
2022-07-29T23:00:02.527Z,46.49
2022-07-29T23:02:29.551Z,46.98
2022-07-29T23:04:56.740Z,47.04
2022-07-29T23:07:23.890Z,46.91
2022-07-29T23:09:50.711Z,46.82
2022-07-29T23:12:17.729Z,46.58
2022-07-29T23:14:44.534Z,46.10
2022-07-29T23:17:11.425Z,45.78
2022-07-29T23:19:38.261Z,45.84
2022-07-29T23:22:05.142Z,45.58
2022-07-29T23:24:31.939Z,45.46
2022-07-29T23:26:59.015Z,45.43
2022-07-29T23:29:26.639Z,45.46
2022-07-29T23:31:53.534Z,45.46
2022-07-29T23:34:20.368Z,45.76
2022-07-29T23:36:47.220Z,45.75
2022-07-29T23:39:14.174Z,45.83
2022-07-29T23:41:41.086Z,45.92
2022-07-29T23:44:08.175Z,45.94
2022-07-29T23:46:35.150Z,46.08
2022-07-29T23:49:02.057Z,46.28
2022-07-29T23:51:29.360Z,46.24
2022-07-29T23:53:56.642Z,47.08
2022-07-29T23:56:23.601Z,47.50
2022-07-29T23:58:50.371Z,48.18
